Ana Sayfa
METAR-TAF:

METAR-TAF

Havaalanları :

Upington, Güney Afrika

Enlem: 28-24S, Boylam: 021-16E, yükseklik: 839 m

Güncel hava durumu gözlemi

Rapor saat 20:00 UTC de 29 dakika önce yapıldı.
Rüzgar batı/kuzeybatıdan 1 kt
Sıcaklık 11°C
Nem 25%
Basınç 1022 hPa

METAR: FAUP 152000Z AUTO 29001KT //// 11/M08 Q1022

Saat: 22:29 (20:29 UTC)

Tahmin

Rapor saat 16:00 UTC de 4 saat ve 29 dakika önce yapıldı.
Ayın 15'si saat 18 UTC'den ayın 16'si saat 18 UTC'ye kadar geçerli Tahmin
Rüzgar değişken yönden 3 kt
Görüş mesafesi 10 km veya daha fazla
1500 m altında bulut yok ve kümülonimbus yok
Dönüşüyor
ayın 16'si saat 09 UTC'den ayın 16'si saat 11 UTC'ye kadar
Rüzgar batı/güneybatıdan 8 kt

TAF: FAUP 151600Z 1518/1618 VRB03KT CAVOK BECMG 1609/1611 24008KT TX24/1612Z TN03/1603Z

4.000'den fazla havaalanı için hava durumu gözlemleri ve tahminleri (METAR ve TAF raporları).

Kullanılabilir istasyonlar harita üzerinde sarı ve kırmızı noktalarla gösterilir.

İstasyonun adını görmek için fareyi noktanın üzerinde gezdirin.

Sonrasında hava gözlem ve tahminlerini görmek için tıklayın.

Haritayı değiştirmek için: yaklaştırmak için siyah artı işaretli yeşil düğmeye ve uzaklaştırmak için de eksi işaretli düğmeye hızla tıklayın; bitişik haritalar için yeşil okları kullanın.


METAR-TAF: